sensor_id;sensor_type;location;lat;lon;timestamp;P1;durP1;ratioP1;P2;durP2;ratioP2
18265;SDS011;9259;48.194;16.322;2023-02-05T00:00:02;4.73;;;2.00;;
18265;SDS011;9259;48.194;16.322;2023-02-05T00:02:32;4.70;;;1.90;;
18265;SDS011;9259;48.194;16.322;2023-02-05T00:05:01;7.33;;;2.30;;
18265;SDS011;9259;48.194;16.322;2023-02-05T00:07:29;6.97;;;1.80;;
18265;SDS011;9259;48.194;16.322;2023-02-05T00:09:57;4.40;;;1.60;;
18265;SDS011;9259;48.194;16.322;2023-02-05T00:12:25;6.57;;;2.00;;
18265;SDS011;9259;48.194;16.322;2023-02-05T00:14:53;3.03;;;1.53;;
18265;SDS011;9259;48.194;16.322;2023-02-05T00:17:21;6.53;;;1.80;;
18265;SDS011;9259;48.194;16.322;2023-02-05T00:19:51;5.30;;;1.73;;
18265;SDS011;9259;48.194;16.322;2023-02-05T00:22:19;6.57;;;1.97;;
18265;SDS011;9259;48.194;16.322;2023-02-05T00:24:47;4.67;;;1.50;;
18265;SDS011;9259;48.194;16.322;2023-02-05T00:27:15;3.50;;;1.83;;
18265;SDS011;9259;48.194;16.322;2023-02-05T00:29:43;4.20;;;1.80;;
18265;SDS011;9259;48.194;16.322;2023-02-05T00:32:11;3.90;;;1.47;;
18265;SDS011;9259;48.194;16.322;2023-02-05T00:34:39;3.07;;;1.57;;
18265;SDS011;9259;48.194;16.322;2023-02-05T00:37:09;6.77;;;1.50;;
18265;SDS011;9259;48.194;16.322;2023-02-05T00:39:37;2.17;;;1.23;;
18265;SDS011;9259;48.194;16.322;2023-02-05T00:42:06;3.40;;;1.57;;
18265;SDS011;9259;48.194;16.322;2023-02-05T00:44:34;3.50;;;1.60;;
18265;SDS011;9259;48.194;16.322;2023-02-05T00:47:02;2.50;;;1.37;;
18265;SDS011;9259;48.194;16.322;2023-02-05T00:49:30;4.00;;;1.43;;
18265;SDS011;9259;48.194;16.322;2023-02-05T00:51:58;4.23;;;1.30;;
18265;SDS011;9259;48.194;16.322;2023-02-05T00:54:28;4.77;;;1.40;;
18265;SDS011;9259;48.194;16.322;2023-02-05T00:56:56;3.53;;;1.60;;
18265;SDS011;9259;48.194;16.322;2023-02-05T00:59:24;3.97;;;1.30;;
18265;SDS011;9259;48.194;16.322;2023-02-05T01:01:52;4.80;;;1.40;;
18265;SDS011;9259;48.194;16.322;2023-02-05T01:04:20;4.77;;;1.30;;
18265;SDS011;9259;48.194;16.322;2023-02-05T01:06:48;4.30;;;1.50;;
18265;SDS011;9259;48.194;16.322;2023-02-05T01:09:16;4.40;;;1.40;;
18265;SDS011;9259;48.194;16.322;2023-02-05T01:11:46;4.43;;;1.30;;
18265;SDS011;9259;48.194;16.322;2023-02-05T01:14:14;4.13;;;1.23;;
18265;SDS011;9259;48.194;16.322;2023-02-05T01:16:42;4.50;;;1.30;;
18265;SDS011;9259;48.194;16.322;2023-02-05T01:19:10;7.07;;;1.30;;
18265;SDS011;9259;48.194;16.322;2023-02-05T01:21:38;3.50;;;1.20;;
18265;SDS011;9259;48.194;16.322;2023-02-05T01:24:06;5.30;;;1.20;;
18265;SDS011;9259;48.194;16.322;2023-02-05T01:26:34;6.53;;;1.60;;
18265;SDS011;9259;48.194;16.322;2023-02-05T01:29:04;3.93;;;1.47;;
18265;SDS011;9259;48.194;16.322;2023-02-05T01:31:32;4.33;;;1.20;;
18265;SDS011;9259;48.194;16.322;2023-02-05T01:34:00;3.53;;;1.20;;
18265;SDS011;9259;48.194;16.322;2023-02-05T01:36:28;8.40;;;1.30;;
18265;SDS011;9259;48.194;16.322;2023-02-05T01:38:56;2.73;;;1.07;;
18265;SDS011;9259;48.194;16.322;2023-02-05T01:41:24;7.53;;;1.30;;
18265;SDS011;9259;48.194;16.322;2023-02-05T01:44:05;4.07;;;1.30;;
18265;SDS011;9259;48.194;16.322;2023-02-05T01:46:34;3.83;;;1.57;;
18265;SDS011;9259;48.194;16.322;2023-02-05T01:49:04;4.40;;;1.37;;
18265;SDS011;9259;48.194;16.322;2023-02-05T01:51:34;3.90;;;1.30;;
18265;SDS011;9259;48.194;16.322;2023-02-05T01:54:03;6.27;;;1.70;;
18265;SDS011;9259;48.194;16.322;2023-02-05T01:56:33;3.77;;;1.20;;
18265;SDS011;9259;48.194;16.322;2023-02-05T01:59:06;3.33;;;1.23;;
18265;SDS011;9259;48.194;16.322;2023-02-05T02:01:36;4.53;;;1.30;;
18265;SDS011;9259;48.194;16.322;2023-02-05T02:04:05;2.73;;;1.33;;
18265;SDS011;9259;48.194;16.322;2023-02-05T02:06:34;5.83;;;1.60;;
18265;SDS011;9259;48.194;16.322;2023-02-05T02:09:03;3.17;;;1.30;;
18265;SDS011;9259;48.194;16.322;2023-02-05T02:11:34;4.47;;;1.30;;
18265;SDS011;9259;48.194;16.322;2023-02-05T02:14:06;3.83;;;1.30;;
18265;SDS011;9259;48.194;16.322;2023-02-05T02:16:35;4.87;;;1.43;;
18265;SDS011;9259;48.194;16.322;2023-02-05T02:19:06;5.13;;;1.67;;
18265;SDS011;9259;48.194;16.322;2023-02-05T02:27:59;2.43;;;0.93;;
18265;SDS011;9259;48.194;16.322;2023-02-05T02:30:30;8.27;;;1.17;;
18265;SDS011;9259;48.194;16.322;2023-02-05T02:33:03;5.60;;;1.43;;
18265;SDS011;9259;48.194;16.322;2023-02-05T02:35:35;8.20;;;1.27;;
18265;SDS011;9259;48.194;16.322;2023-02-05T02:38:09;4.13;;;1.40;;
18265;SDS011;9259;48.194;16.322;2023-02-05T02:40:39;6.10;;;1.37;;
18265;SDS011;9259;48.194;16.322;2023-02-05T02:43:12;4.13;;;1.27;;
18265;SDS011;9259;48.194;16.322;2023-02-05T02:45:44;7.67;;;1.50;;
18265;SDS011;9259;48.194;16.322;2023-02-05T02:48:14;4.50;;;1.13;;
18265;SDS011;9259;48.194;16.322;2023-02-05T02:50:44;4.83;;;1.37;;
18265;SDS011;9259;48.194;16.322;2023-02-05T02:53:16;4.83;;;1.70;;
18265;SDS011;9259;48.194;16.322;2023-02-05T02:55:45;8.17;;;2.10;;
18265;SDS011;9259;48.194;16.322;2023-02-05T02:58:19;6.40;;;1.87;;
18265;SDS011;9259;48.194;16.322;2023-02-05T03:00:49;3.67;;;1.13;;
18265;SDS011;9259;48.194;16.322;2023-02-05T03:03:19;4.03;;;1.20;;
18265;SDS011;9259;48.194;16.322;2023-02-05T03:05:48;3.60;;;1.23;;
18265;SDS011;9259;48.194;16.322;2023-02-05T03:08:18;4.57;;;1.57;;
18265;SDS011;9259;48.194;16.322;2023-02-05T03:10:50;2.60;;;1.20;;
18265;SDS011;9259;48.194;16.322;2023-02-05T03:13:22;8.03;;;1.40;;
18265;SDS011;9259;48.194;16.322;2023-02-05T03:15:50;5.20;;;1.53;;
18265;SDS011;9259;48.194;16.322;2023-02-05T03:18:18;3.00;;;1.40;;
18265;SDS011;9259;48.194;16.322;2023-02-05T03:20:48;4.00;;;1.50;;
18265;SDS011;9259;48.194;16.322;2023-02-05T03:23:18;6.50;;;1.50;;
18265;SDS011;9259;48.194;16.322;2023-02-05T03:25:46;7.10;;;1.30;;
18265;SDS011;9259;48.194;16.322;2023-02-05T03:28:14;3.50;;;1.27;;
18265;SDS011;9259;48.194;16.322;2023-02-05T03:30:47;3.90;;;1.47;;
18265;SDS011;9259;48.194;16.322;2023-02-05T03:33:23;3.00;;;1.40;;
18265;SDS011;9259;48.194;16.322;2023-02-05T03:35:58;4.93;;;1.90;;
18265;SDS011;9259;48.194;16.322;2023-02-05T03:38:32;2.23;;;1.20;;
18265;SDS011;9259;48.194;16.322;2023-02-05T03:41:08;2.93;;;1.40;;
18265;SDS011;9259;48.194;16.322;2023-02-05T03:43:44;4.33;;;1.33;;
18265;SDS011;9259;48.194;16.322;2023-02-05T03:46:20;3.73;;;1.20;;
18265;SDS011;9259;48.194;16.322;2023-02-05T03:48:59;4.37;;;1.70;;
18265;SDS011;9259;48.194;16.322;2023-02-05T03:51:35;2.70;;;1.30;;
18265;SDS011;9259;48.194;16.322;2023-02-05T03:54:08;5.40;;;1.10;;
18265;SDS011;9259;48.194;16.322;2023-02-05T03:56:41;2.43;;;1.03;;
18265;SDS011;9259;48.194;16.322;2023-02-05T03:59:13;5.10;;;1.50;;
18265;SDS011;9259;48.194;16.322;2023-02-05T04:01:44;6.30;;;1.20;;
18265;SDS011;9259;48.194;16.322;2023-02-05T04:04:12;3.17;;;1.10;;
18265;SDS011;9259;48.194;16.322;2023-02-05T04:06:40;4.63;;;1.40;;
18265;SDS011;9259;48.194;16.322;2023-02-05T04:09:09;2.53;;;0.90;;
18265;SDS011;9259;48.194;16.322;2023-02-05T04:11:37;3.40;;;1.13;;
18265;SDS011;9259;48.194;16.322;2023-02-05T04:14:05;6.17;;;1.20;;
18265;SDS011;9259;48.194;16.322;2023-02-05T04:16:33;6.00;;;1.40;;
18265;SDS011;9259;48.194;16.322;2023-02-05T04:19:03;1.90;;;0.80;;
18265;SDS011;9259;48.194;16.322;2023-02-05T04:21:31;3.77;;;1.00;;
18265;SDS011;9259;48.194;16.322;2023-02-05T04:23:59;4.90;;;1.10;;
18265;SDS011;9259;48.194;16.322;2023-02-05T04:26:27;3.53;;;1.03;;
18265;SDS011;9259;48.194;16.322;2023-02-05T04:28:55;3.80;;;1.10;;
18265;SDS011;9259;48.194;16.322;2023-02-05T04:31:23;2.17;;;0.90;;
18265;SDS011;9259;48.194;16.322;2023-02-05T04:33:51;2.13;;;0.70;;
18265;SDS011;9259;48.194;16.322;2023-02-05T04:36:21;2.37;;;0.90;;
18265;SDS011;9259;48.194;16.322;2023-02-05T04:38:49;3.33;;;0.90;;
18265;SDS011;9259;48.194;16.322;2023-02-05T04:41:17;2.27;;;0.83;;
18265;SDS011;9259;48.194;16.322;2023-02-05T04:43:45;4.87;;;1.10;;
18265;SDS011;9259;48.194;16.322;2023-02-05T04:46:16;3.50;;;0.97;;
18265;SDS011;9259;48.194;16.322;2023-02-05T04:48:44;2.10;;;0.70;;
18265;SDS011;9259;48.194;16.322;2023-02-05T04:51:12;5.67;;;1.13;;
18265;SDS011;9259;48.194;16.322;2023-02-05T04:53:43;3.90;;;0.97;;
18265;SDS011;9259;48.194;16.322;2023-02-05T04:56:12;3.07;;;0.90;;
18265;SDS011;9259;48.194;16.322;2023-02-05T04:58:42;2.33;;;0.87;;
18265;SDS011;9259;48.194;16.322;2023-02-05T05:01:11;4.10;;;0.77;;
18265;SDS011;9259;48.194;16.322;2023-02-05T05:03:40;2.33;;;1.10;;
18265;SDS011;9259;48.194;16.322;2023-02-05T05:06:09;3.93;;;1.03;;
18265;SDS011;9259;48.194;16.322;2023-02-05T05:08:37;3.60;;;1.33;;
18265;SDS011;9259;48.194;16.322;2023-02-05T05:11:07;2.83;;;1.10;;
18265;SDS011;9259;48.194;16.322;2023-02-05T05:13:36;2.97;;;1.20;;
18265;SDS011;9259;48.194;16.322;2023-02-05T05:16:05;3.47;;;0.93;;
18265;SDS011;9259;48.194;16.322;2023-02-05T05:18:33;2.60;;;1.00;;
18265;SDS011;9259;48.194;16.322;2023-02-05T05:21:02;4.83;;;1.30;;
18265;SDS011;9259;48.194;16.322;2023-02-05T05:23:31;2.43;;;1.10;;
18265;SDS011;9259;48.194;16.322;2023-02-05T05:26:02;2.00;;;0.87;;
18265;SDS011;9259;48.194;16.322;2023-02-05T05:28:32;2.97;;;1.10;;
18265;SDS011;9259;48.194;16.322;2023-02-05T05:31:04;4.03;;;1.47;;
18265;SDS011;9259;48.194;16.322;2023-02-05T05:33:33;4.90;;;1.40;;
18265;SDS011;9259;48.194;16.322;2023-02-05T05:36:01;4.83;;;1.00;;
18265;SDS011;9259;48.194;16.322;2023-02-05T05:38:30;2.97;;;1.20;;
18265;SDS011;9259;48.194;16.322;2023-02-05T05:40:58;4.13;;;1.50;;
18265;SDS011;9259;48.194;16.322;2023-02-05T05:43:45;3.23;;;1.30;;
18265;SDS011;9259;48.194;16.322;2023-02-05T05:46:14;4.37;;;1.50;;
18265;SDS011;9259;48.194;16.322;2023-02-05T05:48:47;2.87;;;1.10;;
18265;SDS011;9259;48.194;16.322;2023-02-05T05:51:15;3.37;;;1.00;;
18265;SDS011;9259;48.194;16.322;2023-02-05T05:53:44;2.47;;;1.23;;
18265;SDS011;9259;48.194;16.322;2023-02-05T05:56:13;2.90;;;1.00;;
18265;SDS011;9259;48.194;16.322;2023-02-05T05:58:41;5.03;;;1.20;;
18265;SDS011;9259;48.194;16.322;2023-02-05T06:01:12;2.90;;;1.33;;
18265;SDS011;9259;48.194;16.322;2023-02-05T06:03:40;7.03;;;1.57;;
18265;SDS011;9259;48.194;16.322;2023-02-05T06:06:09;3.83;;;1.27;;
18265;SDS011;9259;48.194;16.322;2023-02-05T06:08:38;4.17;;;1.00;;
18265;SDS011;9259;48.194;16.322;2023-02-05T06:11:06;3.40;;;0.90;;
18265;SDS011;9259;48.194;16.322;2023-02-05T06:13:35;3.87;;;1.40;;
18265;SDS011;9259;48.194;16.322;2023-02-05T06:16:03;2.47;;;1.10;;
18265;SDS011;9259;48.194;16.322;2023-02-05T06:18:33;3.50;;;1.00;;
18265;SDS011;9259;48.194;16.322;2023-02-05T06:21:01;1.60;;;0.80;;
18265;SDS011;9259;48.194;16.322;2023-02-05T06:23:30;4.10;;;1.00;;
18265;SDS011;9259;48.194;16.322;2023-02-05T06:25:59;3.20;;;0.97;;
18265;SDS011;9259;48.194;16.322;2023-02-05T06:28:27;3.67;;;1.10;;
18265;SDS011;9259;48.194;16.322;2023-02-05T06:30:55;2.77;;;0.90;;
18265;SDS011;9259;48.194;16.322;2023-02-05T06:33:23;3.40;;;1.03;;
18265;SDS011;9259;48.194;16.322;2023-02-05T06:35:52;2.53;;;0.80;;
18265;SDS011;9259;48.194;16.322;2023-02-05T06:38:21;2.73;;;1.13;;
18265;SDS011;9259;48.194;16.322;2023-02-05T06:40:49;2.33;;;0.83;;
18265;SDS011;9259;48.194;16.322;2023-02-05T06:43:17;3.13;;;0.90;;
18265;SDS011;9259;48.194;16.322;2023-02-05T06:45:45;2.73;;;1.13;;
18265;SDS011;9259;48.194;16.322;2023-02-05T06:48:13;2.53;;;0.70;;
18265;SDS011;9259;48.194;16.322;2023-02-05T06:50:42;2.67;;;0.83;;
18265;SDS011;9259;48.194;16.322;2023-02-05T06:53:12;3.37;;;0.90;;
18265;SDS011;9259;48.194;16.322;2023-02-05T06:55:40;3.27;;;0.90;;
18265;SDS011;9259;48.194;16.322;2023-02-05T06:58:08;1.57;;;0.63;;
18265;SDS011;9259;48.194;16.322;2023-02-05T07:00:36;2.27;;;1.00;;
18265;SDS011;9259;48.194;16.322;2023-02-05T07:03:05;2.73;;;1.10;;
18265;SDS011;9259;48.194;16.322;2023-02-05T07:05:33;2.83;;;1.00;;
18265;SDS011;9259;48.194;16.322;2023-02-05T07:08:01;3.40;;;0.90;;
18265;SDS011;9259;48.194;16.322;2023-02-05T07:10:32;1.87;;;0.70;;
18265;SDS011;9259;48.194;16.322;2023-02-05T07:13:00;2.57;;;0.80;;
18265;SDS011;9259;48.194;16.322;2023-02-05T07:15:29;5.40;;;1.20;;
18265;SDS011;9259;48.194;16.322;2023-02-05T07:17:57;3.10;;;0.80;;
18265;SDS011;9259;48.194;16.322;2023-02-05T07:20:25;3.77;;;0.60;;
18265;SDS011;9259;48.194;16.322;2023-02-05T07:22:53;1.50;;;0.67;;
18265;SDS011;9259;48.194;16.322;2023-02-05T07:25:21;4.67;;;0.90;;
18265;SDS011;9259;48.194;16.322;2023-02-05T07:27:51;7.63;;;1.20;;
18265;SDS011;9259;48.194;16.322;2023-02-05T07:30:19;3.77;;;1.30;;
18265;SDS011;9259;48.194;16.322;2023-02-05T07:32:47;4.73;;;1.07;;
18265;SDS011;9259;48.194;16.322;2023-02-05T07:35:15;3.93;;;0.90;;
18265;SDS011;9259;48.194;16.322;2023-02-05T07:37:44;3.67;;;1.10;;
18265;SDS011;9259;48.194;16.322;2023-02-05T07:40:12;2.20;;;1.00;;
18265;SDS011;9259;48.194;16.322;2023-02-05T07:42:40;8.93;;;1.80;;
18265;SDS011;9259;48.194;16.322;2023-02-05T07:45:10;3.13;;;0.80;;
18265;SDS011;9259;48.194;16.322;2023-02-05T07:47:38;3.40;;;0.90;;
18265;SDS011;9259;48.194;16.322;2023-02-05T07:50:06;2.83;;;0.80;;
18265;SDS011;9259;48.194;16.322;2023-02-05T07:52:34;2.97;;;0.93;;
18265;SDS011;9259;48.194;16.322;2023-02-05T07:55:02;2.97;;;1.10;;
18265;SDS011;9259;48.194;16.322;2023-02-05T07:57:31;2.50;;;0.97;;
18265;SDS011;9259;48.194;16.322;2023-02-05T07:59:59;4.90;;;1.10;;
18265;SDS011;9259;48.194;16.322;2023-02-05T08:02:29;4.03;;;1.20;;
18265;SDS011;9259;48.194;16.322;2023-02-05T08:04:57;6.43;;;1.90;;
18265;SDS011;9259;48.194;16.322;2023-02-05T08:07:25;2.97;;;1.00;;
18265;SDS011;9259;48.194;16.322;2023-02-05T08:09:53;3.67;;;1.57;;
18265;SDS011;9259;48.194;16.322;2023-02-05T08:12:21;3.30;;;1.20;;
18265;SDS011;9259;48.194;16.322;2023-02-05T08:14:50;3.03;;;1.00;;
18265;SDS011;9259;48.194;16.322;2023-02-05T08:17:18;3.13;;;1.27;;
18265;SDS011;9259;48.194;16.322;2023-02-05T08:19:48;3.97;;;1.03;;
18265;SDS011;9259;48.194;16.322;2023-02-05T08:22:17;3.30;;;1.40;;
18265;SDS011;9259;48.194;16.322;2023-02-05T08:24:45;8.60;;;1.63;;
18265;SDS011;9259;48.194;16.322;2023-02-05T08:27:13;2.10;;;0.80;;
18265;SDS011;9259;48.194;16.322;2023-02-05T08:29:41;1.63;;;0.83;;
18265;SDS011;9259;48.194;16.322;2023-02-05T08:32:12;2.10;;;1.03;;
18265;SDS011;9259;48.194;16.322;2023-02-05T08:34:40;4.07;;;1.50;;
18265;SDS011;9259;48.194;16.322;2023-02-05T08:37:10;3.60;;;1.13;;
18265;SDS011;9259;48.194;16.322;2023-02-05T08:39:38;2.87;;;1.00;;
18265;SDS011;9259;48.194;16.322;2023-02-05T08:42:06;4.07;;;0.90;;
18265;SDS011;9259;48.194;16.322;2023-02-05T08:44:34;3.00;;;1.10;;
18265;SDS011;9259;48.194;16.322;2023-02-05T08:47:02;3.23;;;0.70;;
18265;SDS011;9259;48.194;16.322;2023-02-05T08:49:30;2.77;;;1.20;;
18265;SDS011;9259;48.194;16.322;2023-02-05T08:51:59;2.23;;;0.90;;
18265;SDS011;9259;48.194;16.322;2023-02-05T08:54:28;2.30;;;0.90;;
18265;SDS011;9259;48.194;16.322;2023-02-05T08:56:57;3.73;;;0.90;;
18265;SDS011;9259;48.194;16.322;2023-02-05T08:59:25;1.33;;;0.80;;
18265;SDS011;9259;48.194;16.322;2023-02-05T09:01:53;2.57;;;1.20;;
18265;SDS011;9259;48.194;16.322;2023-02-05T09:04:21;2.53;;;1.00;;
18265;SDS011;9259;48.194;16.322;2023-02-05T09:06:50;2.70;;;0.87;;
18265;SDS011;9259;48.194;16.322;2023-02-05T09:09:18;2.77;;;1.10;;
18265;SDS011;9259;48.194;16.322;2023-02-05T09:11:47;2.13;;;0.70;;
18265;SDS011;9259;48.194;16.322;2023-02-05T09:14:15;4.37;;;1.00;;
18265;SDS011;9259;48.194;16.322;2023-02-05T09:16:44;2.87;;;1.13;;
18265;SDS011;9259;48.194;16.322;2023-02-05T09:19:12;1.20;;;0.70;;
18265;SDS011;9259;48.194;16.322;2023-02-05T09:21:40;4.73;;;1.33;;
18265;SDS011;9259;48.194;16.322;2023-02-05T09:24:08;1.83;;;0.57;;
18265;SDS011;9259;48.194;16.322;2023-02-05T09:26:36;2.70;;;0.93;;
18265;SDS011;9259;48.194;16.322;2023-02-05T09:29:06;2.50;;;0.70;;
18265;SDS011;9259;48.194;16.322;2023-02-05T09:31:34;2.63;;;1.00;;
18265;SDS011;9259;48.194;16.322;2023-02-05T09:34:02;3.17;;;1.10;;
18265;SDS011;9259;48.194;16.322;2023-02-05T09:36:30;2.43;;;1.23;;
18265;SDS011;9259;48.194;16.322;2023-02-05T09:38:58;3.83;;;1.30;;
18265;SDS011;9259;48.194;16.322;2023-02-05T09:41:28;2.87;;;0.97;;
18265;SDS011;9259;48.194;16.322;2023-02-05T09:44:04;2.67;;;0.90;;
18265;SDS011;9259;48.194;16.322;2023-02-05T09:46:38;5.63;;;1.20;;
18265;SDS011;9259;48.194;16.322;2023-02-05T09:49:12;2.93;;;0.83;;
18265;SDS011;9259;48.194;16.322;2023-02-05T09:51:43;3.10;;;1.20;;
18265;SDS011;9259;48.194;16.322;2023-02-05T09:54:14;1.87;;;0.80;;
18265;SDS011;9259;48.194;16.322;2023-02-05T09:56:43;2.50;;;0.93;;
18265;SDS011;9259;48.194;16.322;2023-02-05T09:59:15;4.43;;;1.00;;
18265;SDS011;9259;48.194;16.322;2023-02-05T10:01:46;4.80;;;1.07;;
18265;SDS011;9259;48.194;16.322;2023-02-05T10:04:15;1.77;;;0.77;;
18265;SDS011;9259;48.194;16.322;2023-02-05T10:09:43;2.97;;;0.77;;
18265;SDS011;9259;48.194;16.322;2023-02-05T10:12:26;2.67;;;0.90;;
18265;SDS011;9259;48.194;16.322;2023-02-05T10:15:06;2.60;;;1.00;;
18265;SDS011;9259;48.194;16.322;2023-02-05T10:17:50;3.07;;;1.10;;
18265;SDS011;9259;48.194;16.322;2023-02-05T10:20:34;3.37;;;1.00;;
18265;SDS011;9259;48.194;16.322;2023-02-05T10:23:14;1.87;;;0.90;;
18265;SDS011;9259;48.194;16.322;2023-02-05T10:25:47;2.07;;;0.80;;
18265;SDS011;9259;48.194;16.322;2023-02-05T10:28:25;2.50;;;1.13;;
18265;SDS011;9259;48.194;16.322;2023-02-05T10:31:20;4.20;;;0.87;;
18265;SDS011;9259;48.194;16.322;2023-02-05T10:33:50;3.60;;;1.20;;
18265;SDS011;9259;48.194;16.322;2023-02-05T10:36:21;4.40;;;1.63;;
18265;SDS011;9259;48.194;16.322;2023-02-05T10:38:50;4.00;;;1.33;;
18265;SDS011;9259;48.194;16.322;2023-02-05T10:41:21;2.47;;;0.90;;
18265;SDS011;9259;48.194;16.322;2023-02-05T10:43:52;3.20;;;1.27;;
18265;SDS011;9259;48.194;16.322;2023-02-05T10:46:30;1.93;;;0.80;;
18265;SDS011;9259;48.194;16.322;2023-02-05T10:49:00;2.70;;;0.90;;
18265;SDS011;9259;48.194;16.322;2023-02-05T10:51:34;4.37;;;1.30;;
18265;SDS011;9259;48.194;16.322;2023-02-05T10:54:06;3.63;;;1.20;;
18265;SDS011;9259;48.194;16.322;2023-02-05T10:56:44;4.70;;;1.53;;
18265;SDS011;9259;48.194;16.322;2023-02-05T10:59:15;3.17;;;1.47;;
18265;SDS011;9259;48.194;16.322;2023-02-05T11:01:48;3.07;;;1.13;;
18265;SDS011;9259;48.194;16.322;2023-02-05T11:04:18;3.67;;;1.60;;
18265;SDS011;9259;48.194;16.322;2023-02-05T11:06:48;3.33;;;1.30;;
18265;SDS011;9259;48.194;16.322;2023-02-05T11:09:27;2.60;;;1.13;;
18265;SDS011;9259;48.194;16.322;2023-02-05T11:11:57;3.80;;;1.17;;
18265;SDS011;9259;48.194;16.322;2023-02-05T11:14:26;1.80;;;1.03;;
18265;SDS011;9259;48.194;16.322;2023-02-05T11:17:07;5.00;;;1.53;;
18265;SDS011;9259;48.194;16.322;2023-02-05T11:19:50;3.20;;;1.47;;
18265;SDS011;9259;48.194;16.322;2023-02-05T11:22:23;3.13;;;1.20;;
18265;SDS011;9259;48.194;16.322;2023-02-05T11:25:02;8.53;;;1.73;;
18265;SDS011;9259;48.194;16.322;2023-02-05T11:27:35;5.27;;;1.20;;
18265;SDS011;9259;48.194;16.322;2023-02-05T11:30:17;4.73;;;1.70;;
18265;SDS011;9259;48.194;16.322;2023-02-05T11:32:51;2.27;;;1.23;;
18265;SDS011;9259;48.194;16.322;2023-02-05T11:35:21;5.17;;;1.20;;
18265;SDS011;9259;48.194;16.322;2023-02-05T11:37:57;7.10;;;1.57;;
18265;SDS011;9259;48.194;16.322;2023-02-05T11:40:27;3.20;;;1.20;;
18265;SDS011;9259;48.194;16.322;2023-02-05T11:43:01;6.37;;;1.20;;
18265;SDS011;9259;48.194;16.322;2023-02-05T11:45:31;2.20;;;0.83;;
18265;SDS011;9259;48.194;16.322;2023-02-05T11:48:03;2.57;;;1.00;;
18265;SDS011;9259;48.194;16.322;2023-02-05T11:50:32;2.37;;;1.30;;
18265;SDS011;9259;48.194;16.322;2023-02-05T11:53:05;3.23;;;1.30;;
18265;SDS011;9259;48.194;16.322;2023-02-05T11:55:39;3.33;;;1.50;;
18265;SDS011;9259;48.194;16.322;2023-02-05T11:58:16;4.07;;;1.90;;
18265;SDS011;9259;48.194;16.322;2023-02-05T12:00:49;2.00;;;1.10;;
18265;SDS011;9259;48.194;16.322;2023-02-05T12:03:23;2.23;;;1.23;;
18265;SDS011;9259;48.194;16.322;2023-02-05T12:05:56;2.83;;;1.43;;
18265;SDS011;9259;48.194;16.322;2023-02-05T12:08:31;2.23;;;1.10;;
18265;SDS011;9259;48.194;16.322;2023-02-05T12:11:13;3.77;;;1.40;;
18265;SDS011;9259;48.194;16.322;2023-02-05T12:13:53;3.60;;;1.27;;
18265;SDS011;9259;48.194;16.322;2023-02-05T12:16:32;3.97;;;1.50;;
18265;SDS011;9259;48.194;16.322;2023-02-05T12:19:11;2.10;;;1.20;;
18265;SDS011;9259;48.194;16.322;2023-02-05T12:21:46;4.57;;;1.37;;
18265;SDS011;9259;48.194;16.322;2023-02-05T12:27:16;3.30;;;1.90;;
18265;SDS011;9259;48.194;16.322;2023-02-05T12:29:59;2.73;;;1.27;;
18265;SDS011;9259;48.194;16.322;2023-02-05T12:32:37;2.60;;;1.40;;
18265;SDS011;9259;48.194;16.322;2023-02-05T12:35:18;2.90;;;1.40;;
18265;SDS011;9259;48.194;16.322;2023-02-05T12:37:55;5.20;;;1.60;;
18265;SDS011;9259;48.194;16.322;2023-02-05T12:40:33;2.97;;;1.13;;
18265;SDS011;9259;48.194;16.322;2023-02-05T12:43:10;3.37;;;1.30;;
18265;SDS011;9259;48.194;16.322;2023-02-05T12:45:50;4.47;;;1.20;;
18265;SDS011;9259;48.194;16.322;2023-02-05T12:48:27;6.77;;;1.30;;
18265;SDS011;9259;48.194;16.322;2023-02-05T12:51:10;3.77;;;1.30;;
18265;SDS011;9259;48.194;16.322;2023-02-05T12:53:56;4.53;;;1.47;;
18265;SDS011;9259;48.194;16.322;2023-02-05T12:56:54;6.10;;;1.93;;
18265;SDS011;9259;48.194;16.322;2023-02-05T12:59:32;4.37;;;1.50;;
18265;SDS011;9259;48.194;16.322;2023-02-05T13:02:06;3.70;;;1.80;;
18265;SDS011;9259;48.194;16.322;2023-02-05T13:04:43;6.00;;;2.10;;
18265;SDS011;9259;48.194;16.322;2023-02-05T13:07:17;5.13;;;2.00;;
18265;SDS011;9259;48.194;16.322;2023-02-05T13:09:54;5.03;;;1.97;;
18265;SDS011;9259;48.194;16.322;2023-02-05T13:12:25;5.43;;;1.83;;
18265;SDS011;9259;48.194;16.322;2023-02-05T13:14:59;4.60;;;1.50;;
18265;SDS011;9259;48.194;16.322;2023-02-05T13:17:37;7.53;;;1.80;;
18265;SDS011;9259;48.194;16.322;2023-02-05T13:20:14;3.97;;;1.60;;
18265;SDS011;9259;48.194;16.322;2023-02-05T13:23:10;7.27;;;1.90;;
18265;SDS011;9259;48.194;16.322;2023-02-05T13:25:53;5.97;;;2.30;;
18265;SDS011;9259;48.194;16.322;2023-02-05T13:28:41;3.37;;;1.60;;
18265;SDS011;9259;48.194;16.322;2023-02-05T13:31:14;3.23;;;1.60;;
18265;SDS011;9259;48.194;16.322;2023-02-05T13:33:50;4.47;;;1.63;;
18265;SDS011;9259;48.194;16.322;2023-02-05T13:36:30;4.13;;;1.27;;
18265;SDS011;9259;48.194;16.322;2023-02-05T13:39:19;3.90;;;1.67;;
18265;SDS011;9259;48.194;16.322;2023-02-05T13:42:00;5.27;;;1.60;;
18265;SDS011;9259;48.194;16.322;2023-02-05T13:53:10;5.40;;;3.00;;
18265;SDS011;9259;48.194;16.322;2023-02-05T13:59:06;5.10;;;2.33;;
18265;SDS011;9259;48.194;16.322;2023-02-05T14:01:40;4.10;;;1.87;;
18265;SDS011;9259;48.194;16.322;2023-02-05T14:04:16;5.40;;;2.93;;
18265;SDS011;9259;48.194;16.322;2023-02-05T14:06:49;5.50;;;2.20;;
18265;SDS011;9259;48.194;16.322;2023-02-05T14:09:26;4.40;;;2.00;;
18265;SDS011;9259;48.194;16.322;2023-02-05T14:12:02;7.07;;;2.10;;
18265;SDS011;9259;48.194;16.322;2023-02-05T14:14:33;6.23;;;2.57;;
18265;SDS011;9259;48.194;16.322;2023-02-05T14:17:02;6.03;;;2.00;;
18265;SDS011;9259;48.194;16.322;2023-02-05T14:23:03;4.80;;;1.90;;
18265;SDS011;9259;48.194;16.322;2023-02-05T14:28:42;6.63;;;2.47;;
18265;SDS011;9259;48.194;16.322;2023-02-05T14:37:27;6.57;;;2.60;;
18265;SDS011;9259;48.194;16.322;2023-02-05T14:40:20;5.93;;;2.67;;
18265;SDS011;9259;48.194;16.322;2023-02-05T14:42:53;6.77;;;2.60;;
18265;SDS011;9259;48.194;16.322;2023-02-05T14:45:23;5.27;;;2.40;;
18265;SDS011;9259;48.194;16.322;2023-02-05T14:47:55;5.50;;;2.33;;
18265;SDS011;9259;48.194;16.322;2023-02-05T14:50:27;5.20;;;2.50;;
18265;SDS011;9259;48.194;16.322;2023-02-05T14:52:57;5.13;;;2.10;;
18265;SDS011;9259;48.194;16.322;2023-02-05T14:55:27;6.17;;;2.20;;
18265;SDS011;9259;48.194;16.322;2023-02-05T14:57:59;6.17;;;2.27;;
18265;SDS011;9259;48.194;16.322;2023-02-05T15:00:30;5.10;;;2.47;;
18265;SDS011;9259;48.194;16.322;2023-02-05T15:06:03;7.27;;;3.17;;
18265;SDS011;9259;48.194;16.322;2023-02-05T15:08:41;7.03;;;2.30;;
18265;SDS011;9259;48.194;16.322;2023-02-05T15:11:14;6.67;;;2.50;;
18265;SDS011;9259;48.194;16.322;2023-02-05T15:20:04;6.90;;;2.30;;
18265;SDS011;9259;48.194;16.322;2023-02-05T15:22:53;3.97;;;2.00;;
18265;SDS011;9259;48.194;16.322;2023-02-05T15:25:35;5.37;;;1.90;;
18265;SDS011;9259;48.194;16.322;2023-02-05T15:28:14;5.17;;;2.43;;
18265;SDS011;9259;48.194;16.322;2023-02-05T15:33:42;8.10;;;2.60;;
18265;SDS011;9259;48.194;16.322;2023-02-05T15:36:24;5.80;;;2.33;;
18265;SDS011;9259;48.194;16.322;2023-02-05T15:39:04;5.10;;;2.40;;
18265;SDS011;9259;48.194;16.322;2023-02-05T15:41:42;8.60;;;2.70;;
18265;SDS011;9259;48.194;16.322;2023-02-05T15:44:19;7.77;;;2.60;;
18265;SDS011;9259;48.194;16.322;2023-02-05T15:46:52;6.90;;;2.13;;
18265;SDS011;9259;48.194;16.322;2023-02-05T15:49:24;5.13;;;2.53;;
18265;SDS011;9259;48.194;16.322;2023-02-05T15:52:05;6.80;;;2.87;;
18265;SDS011;9259;48.194;16.322;2023-02-05T15:54:37;5.87;;;2.47;;
18265;SDS011;9259;48.194;16.322;2023-02-05T15:57:06;4.63;;;2.33;;
18265;SDS011;9259;48.194;16.322;2023-02-05T15:59:44;6.13;;;2.40;;
18265;SDS011;9259;48.194;16.322;2023-02-05T16:02:14;7.73;;;2.73;;